createdAt,value
2022-07-25T00:01:15.678Z,15.02
2022-07-25T00:03:42.015Z,19.17
2022-07-25T00:06:13.526Z,22.50
2022-07-25T00:08:44.391Z,23.83
2022-07-25T00:11:10.693Z,30.98
2022-07-25T00:13:37.005Z,33.55
2022-07-25T00:16:03.340Z,32.28
2022-07-25T00:18:29.746Z,37.60
2022-07-25T00:20:56.059Z,35.72
2022-07-25T00:23:22.367Z,39.17
2022-07-25T00:25:48.653Z,37.53
2022-07-25T00:28:15.039Z,41.08
2022-07-25T00:30:41.362Z,38.17
2022-07-25T00:33:07.669Z,39.92
2022-07-25T00:35:33.983Z,40.08
2022-07-25T00:38:00.318Z,40.83
2022-07-25T00:40:26.737Z,40.97
2022-07-25T00:42:53.109Z,40.42
2022-07-25T00:45:19.435Z,40.95
2022-07-25T00:47:45.738Z,38.75
2022-07-25T00:50:12.053Z,40.45
2022-07-25T00:52:38.356Z,40.90
2022-07-25T00:55:04.684Z,41.17
2022-07-25T00:57:31.007Z,40.40
2022-07-25T00:59:57.319Z,38.33
2022-07-25T01:02:23.683Z,40.22
2022-07-25T01:04:50.043Z,40.38
2022-07-25T01:07:16.401Z,38.53
2022-07-25T01:09:42.678Z,43.83
2022-07-25T01:12:08.991Z,41.38
2022-07-25T01:14:36.613Z,41.17
2022-07-25T01:17:02.907Z,42.05
2022-07-25T01:19:29.229Z,42.13
2022-07-25T01:21:56.281Z,43.78
2022-07-25T01:24:22.547Z,45.57
2022-07-25T01:26:48.868Z,45.20
2022-07-25T01:29:15.187Z,46.80
2022-07-25T01:31:41.484Z,51.10
2022-07-25T01:34:08.049Z,52.67
2022-07-25T01:36:34.526Z,58.05
2022-07-25T01:39:00.841Z,57.42
2022-07-25T01:41:27.131Z,61.50
2022-07-25T01:43:53.458Z,60.38
2022-07-25T01:46:19.787Z,62.25
2022-07-25T01:48:46.207Z,63.17
2022-07-25T01:51:12.554Z,60.85
2022-07-25T01:53:39.156Z,64.45
2022-07-25T01:56:05.967Z,64.78
2022-07-25T01:58:34.606Z,64.07
2022-07-25T02:01:00.931Z,66.40
2022-07-25T02:03:30.110Z,67.15
2022-07-25T02:05:56.404Z,69.20
2022-07-25T02:08:23.176Z,63.83
2022-07-25T02:10:49.482Z,66.05
2022-07-25T02:13:15.793Z,66.75
2022-07-25T02:15:42.084Z,66.63
2022-07-25T02:18:08.397Z,68.40
2022-07-25T02:20:34.715Z,64.45
2022-07-25T02:23:01.022Z,68.93
2022-07-25T02:25:27.314Z,66.50
2022-07-25T02:27:53.622Z,64.72
2022-07-25T02:30:19.963Z,63.50
2022-07-25T02:32:46.301Z,61.75
2022-07-25T02:35:13.486Z,66.88
2022-07-25T02:37:39.853Z,65.28
2022-07-25T02:40:06.319Z,65.10
2022-07-25T02:42:32.611Z,61.85
2022-07-25T02:44:58.927Z,62.58
2022-07-25T02:47:25.224Z,65.40
2022-07-25T02:49:51.548Z,64.88
2022-07-25T02:52:17.874Z,64.20
2022-07-25T02:54:44.188Z,64.63
2022-07-25T02:57:10.489Z,66.88
2022-07-25T02:59:36.792Z,63.50
2022-07-25T03:02:03.079Z,65.78
2022-07-25T03:04:31.010Z,63.80
2022-07-25T03:06:57.402Z,63.00
2022-07-25T03:09:23.735Z,63.22
2022-07-25T03:11:51.829Z,65.32
2022-07-25T03:14:18.141Z,64.45
2022-07-25T03:16:44.507Z,66.70
2022-07-25T03:19:12.724Z,65.68
2022-07-25T03:21:39.017Z,63.08
2022-07-25T03:24:05.644Z,63.67
2022-07-25T03:26:32.239Z,61.22
2022-07-25T03:28:58.539Z,63.47
2022-07-25T03:31:24.909Z,58.25
2022-07-25T03:33:51.262Z,58.17
2022-07-25T03:36:17.591Z,59.08
2022-07-25T03:38:43.890Z,56.70
2022-07-25T03:41:10.192Z,55.33
2022-07-25T03:43:36.501Z,55.42
2022-07-25T03:46:02.844Z,55.03
2022-07-25T03:48:29.218Z,55.28
2022-07-25T03:50:55.525Z,52.25
2022-07-25T03:53:21.835Z,51.83
2022-07-25T03:55:48.134Z,51.13
2022-07-25T03:58:14.458Z,50.78
2022-07-25T04:00:40.823Z,49.95
2022-07-25T04:03:07.483Z,50.92
2022-07-25T04:05:33.793Z,51.22
2022-07-25T04:08:00.415Z,52.05
2022-07-25T04:10:26.731Z,50.20
2022-07-25T04:12:53.034Z,49.03
2022-07-25T04:15:19.355Z,48.38
2022-07-25T04:17:45.639Z,44.80
2022-07-25T04:20:11.973Z,48.03
2022-07-25T04:22:40.090Z,44.72
2022-07-25T04:25:08.546Z,48.67
2022-07-25T04:27:34.839Z,47.78
2022-07-25T04:30:01.171Z,48.25
2022-07-25T04:32:27.522Z,47.03
2022-07-25T04:34:55.303Z,46.38
2022-07-25T04:37:21.803Z,45.05
2022-07-25T04:39:48.130Z,47.08
2022-07-25T04:42:14.438Z,46.00
2022-07-25T04:44:40.760Z,42.05
2022-07-25T04:47:07.074Z,40.00
2022-07-25T04:49:33.391Z,39.08
2022-07-25T04:51:59.677Z,36.92
2022-07-25T04:54:26.024Z,33.67
2022-07-25T04:56:52.324Z,30.88
2022-07-25T04:59:18.629Z,29.17
2022-07-25T05:01:44.957Z,24.48
2022-07-25T05:04:11.335Z,23.75
2022-07-25T05:06:37.637Z,25.35
2022-07-25T05:09:03.969Z,23.15
2022-07-25T05:11:30.268Z,21.92
2022-07-25T05:13:56.583Z,19.98
2022-07-25T05:16:22.985Z,19.13
2022-07-25T05:18:49.307Z,21.17
2022-07-25T05:21:15.595Z,19.42
2022-07-25T05:23:41.914Z,19.08
2022-07-25T05:26:08.218Z,19.30
2022-07-25T05:28:34.535Z,19.77
2022-07-25T05:31:00.909Z,19.55
2022-07-25T05:33:27.379Z,20.10
2022-07-25T05:35:53.697Z,20.35
2022-07-25T05:38:20.107Z,19.83
2022-07-25T05:40:47.497Z,19.52
2022-07-25T05:43:13.809Z,18.50
2022-07-25T05:45:40.110Z,20.20
2022-07-25T05:48:06.637Z,18.73
2022-07-25T05:50:32.941Z,19.95
2022-07-25T05:52:59.257Z,19.40
2022-07-25T05:55:25.572Z,17.08
2022-07-25T05:57:51.885Z,18.33
2022-07-25T06:00:18.226Z,18.88
2022-07-25T06:02:44.805Z,18.10
2022-07-25T06:05:11.259Z,17.25
2022-07-25T06:07:37.773Z,17.15
2022-07-25T06:10:04.080Z,16.65
2022-07-25T06:12:30.406Z,16.67
2022-07-25T06:14:56.734Z,17.52
2022-07-25T06:17:23.407Z,18.42
2022-07-25T06:19:49.707Z,16.80
2022-07-25T06:22:16.007Z,18.23
2022-07-25T06:24:42.306Z,18.38
2022-07-25T06:27:08.867Z,17.50
2022-07-25T06:29:35.189Z,16.73
2022-07-25T06:32:01.566Z,17.30
2022-07-25T06:34:28.881Z,16.33
2022-07-25T06:36:55.354Z,16.33
2022-07-25T06:39:21.660Z,17.90
2022-07-25T06:41:47.979Z,17.05
2022-07-25T06:44:14.277Z,15.77
2022-07-25T06:46:40.676Z,17.35
2022-07-25T06:49:07.142Z,15.15
2022-07-25T06:51:34.044Z,15.13
2022-07-25T06:54:00.332Z,15.68
2022-07-25T06:56:31.272Z,13.82
2022-07-25T06:58:57.678Z,13.70
2022-07-25T07:01:24.046Z,12.57
2022-07-25T07:03:50.462Z,10.98
2022-07-25T07:06:16.807Z,11.13
2022-07-25T07:08:43.134Z,10.07
2022-07-25T07:11:09.442Z,11.10
2022-07-25T07:13:35.730Z,9.10
2022-07-25T07:16:02.564Z,8.05
2022-07-25T07:18:28.908Z,7.90
2022-07-25T07:20:55.208Z,9.10
2022-07-25T07:23:21.520Z,6.65
2022-07-25T07:25:48.174Z,7.75
2022-07-25T07:28:14.423Z,6.77
2022-07-25T07:33:27.021Z,6.30
2022-07-25T07:35:55.887Z,5.53
2022-07-25T07:38:22.194Z,5.60
2022-07-25T07:40:48.884Z,5.75
2022-07-25T07:43:15.193Z,5.87
2022-07-25T07:45:41.488Z,5.55
2022-07-25T07:48:08.032Z,5.32
2022-07-25T07:50:34.325Z,4.80
2022-07-25T07:53:00.652Z,6.10
2022-07-25T07:55:45.566Z,4.30
2022-07-25T07:58:11.998Z,4.68
2022-07-25T08:00:39.405Z,4.70
2022-07-25T08:03:06.634Z,4.75
2022-07-25T08:05:33.027Z,5.13
2022-07-25T08:07:59.534Z,5.07
2022-07-25T08:10:26.049Z,4.70
2022-07-25T08:12:52.376Z,4.78
2022-07-25T08:15:18.700Z,4.68
2022-07-25T08:17:45.012Z,4.85
2022-07-25T08:20:35.723Z,4.88
2022-07-25T08:22:57.526Z,3.73
2022-07-25T08:25:23.816Z,4.57
2022-07-25T08:27:50.126Z,5.00
2022-07-25T08:30:16.427Z,4.72
2022-07-25T08:32:42.751Z,4.40
2022-07-25T08:35:11.538Z,5.07
2022-07-25T08:37:38.008Z,4.03
2022-07-25T08:40:04.308Z,4.93
2022-07-25T08:42:30.602Z,4.53
2022-07-25T08:44:56.889Z,4.72
2022-07-25T08:47:23.332Z,5.05
2022-07-25T08:49:49.582Z,4.40
2022-07-25T08:52:15.890Z,4.82
2022-07-25T08:54:42.491Z,4.75
2022-07-25T08:57:08.724Z,4.70
2022-07-25T08:59:35.014Z,4.43
2022-07-25T09:02:03.741Z,4.88
2022-07-25T09:04:30.462Z,5.20
2022-07-25T09:06:56.792Z,5.38
2022-07-25T09:09:23.095Z,5.20
2022-07-25T09:11:50.425Z,5.32
2022-07-25T09:14:16.722Z,4.90
2022-07-25T09:16:43.206Z,4.82
2022-07-25T09:19:10.812Z,5.10
2022-07-25T09:21:37.168Z,5.25
2022-07-25T09:24:04.096Z,4.95
2022-07-25T09:26:30.673Z,5.28
2022-07-25T09:28:56.968Z,5.78
2022-07-25T09:31:23.290Z,5.03
2022-07-25T09:33:49.636Z,4.95
2022-07-25T09:36:15.949Z,5.13
2022-07-25T09:38:42.243Z,4.78
2022-07-25T09:41:09.228Z,5.00
2022-07-25T09:43:36.419Z,4.88
2022-07-25T09:46:02.805Z,5.10
2022-07-25T09:48:29.133Z,4.73
2022-07-25T09:50:55.496Z,5.50
2022-07-25T09:53:21.754Z,4.67
2022-07-25T09:55:48.065Z,4.75
2022-07-25T09:58:14.372Z,4.80
2022-07-25T10:00:43.774Z,5.15
2022-07-25T10:03:10.142Z,5.70
2022-07-25T10:05:36.422Z,4.80
2022-07-25T10:08:02.736Z,4.93
2022-07-25T10:10:29.063Z,4.65
2022-07-25T10:12:55.532Z,4.28
2022-07-25T10:15:21.838Z,5.03
2022-07-25T10:17:49.577Z,5.72
2022-07-25T10:20:15.863Z,5.10
2022-07-25T10:22:58.270Z,6.10
2022-07-25T10:25:49.526Z,4.45
2022-07-25T10:28:15.850Z,5.10
2022-07-25T10:30:42.217Z,5.57
2022-07-25T10:33:08.483Z,5.00
2022-07-25T10:35:34.837Z,4.78
2022-07-25T10:38:01.133Z,4.93
2022-07-25T10:40:27.368Z,5.90
2022-07-25T10:42:53.672Z,5.57
2022-07-25T10:45:19.992Z,4.55
2022-07-25T10:47:46.571Z,5.18
2022-07-25T10:50:34.734Z,5.50
2022-07-25T10:52:59.977Z,5.60
2022-07-25T10:58:16.192Z,4.95
2022-07-25T11:00:38.775Z,5.35
2022-07-25T11:03:05.151Z,5.70
2022-07-25T11:05:31.514Z,5.28
2022-07-25T11:08:20.505Z,5.10
2022-07-25T11:10:44.113Z,5.13
2022-07-25T11:13:10.419Z,4.72
2022-07-25T11:15:36.723Z,4.78
2022-07-25T11:18:02.996Z,4.87
2022-07-25T11:20:29.321Z,5.50
2022-07-25T11:22:55.625Z,4.95
2022-07-25T11:25:22.837Z,5.23
2022-07-25T11:27:49.405Z,5.35
2022-07-25T11:30:15.787Z,5.30
2022-07-25T11:32:42.021Z,4.77
2022-07-25T11:40:02.960Z,4.80
2022-07-25T11:42:29.282Z,4.78
2022-07-25T11:44:55.502Z,5.07
2022-07-25T11:47:22.085Z,4.63
2022-07-25T11:49:48.415Z,5.45
2022-07-25T11:52:14.717Z,4.90
2022-07-25T11:54:40.955Z,4.68
2022-07-25T11:57:08.840Z,5.30
2022-07-25T11:59:35.145Z,4.50
2022-07-25T12:02:01.711Z,5.40
2022-07-25T12:04:28.622Z,5.10
2022-07-25T12:06:55.339Z,5.07
2022-07-25T12:09:21.649Z,5.13
2022-07-25T12:11:47.900Z,4.93
2022-07-25T12:14:14.207Z,4.68
2022-07-25T12:16:40.678Z,4.90
2022-07-25T12:19:07.257Z,4.85
2022-07-25T12:21:33.855Z,5.05
2022-07-25T12:24:00.108Z,4.83
2022-07-25T12:26:26.618Z,5.03
2022-07-25T12:28:52.925Z,4.85
2022-07-25T12:31:19.254Z,5.27
2022-07-25T12:33:45.605Z,4.63
2022-07-25T12:36:11.852Z,4.50
2022-07-25T12:38:38.195Z,5.35
2022-07-25T12:41:04.423Z,4.80
2022-07-25T12:43:30.764Z,5.00
2022-07-25T12:45:57.037Z,4.50
2022-07-25T12:48:23.356Z,5.22
2022-07-25T12:50:49.637Z,5.20
2022-07-25T12:53:16.249Z,4.85
2022-07-25T12:55:42.574Z,5.05
2022-07-25T12:58:09.085Z,5.57
2022-07-25T13:00:35.424Z,5.10
2022-07-25T13:03:01.762Z,4.67
2022-07-25T13:05:28.015Z,4.87
2022-07-25T13:07:54.313Z,4.70
2022-07-25T13:10:20.574Z,5.30
2022-07-25T13:12:46.881Z,4.60
2022-07-25T13:15:13.151Z,4.20
2022-07-25T13:17:40.379Z,5.87
2022-07-25T13:22:32.998Z,4.97
2022-07-25T13:24:59.266Z,5.10
2022-07-25T13:27:25.561Z,5.68
2022-07-25T13:29:54.554Z,5.50
2022-07-25T13:32:21.274Z,5.95
2022-07-25T13:34:47.532Z,5.00
2022-07-25T13:37:13.833Z,5.43
2022-07-25T13:39:42.139Z,5.30
2022-07-25T13:42:08.455Z,5.38
2022-07-25T13:44:34.700Z,6.13
2022-07-25T13:47:00.982Z,5.60
2022-07-25T13:49:27.277Z,5.40
2022-07-25T13:51:53.551Z,5.43
2022-07-25T13:54:19.783Z,4.87
2022-07-25T13:56:46.280Z,5.60
2022-07-25T13:59:18.834Z,5.15
2022-07-25T14:01:47.437Z,4.88
2022-07-25T14:04:13.802Z,5.82
2022-07-25T14:06:40.031Z,5.30
2022-07-25T14:09:06.572Z,6.10
2022-07-25T14:11:33.106Z,4.88
2022-07-25T14:13:59.408Z,5.57
2022-07-25T14:16:25.684Z,5.27
2022-07-25T14:18:52.137Z,5.33
2022-07-25T14:21:18.679Z,5.72
2022-07-25T14:23:44.985Z,5.28
2022-07-25T14:26:11.276Z,4.73
2022-07-25T14:28:37.521Z,4.80
2022-07-25T14:31:03.850Z,4.82
2022-07-25T14:33:30.081Z,5.17
2022-07-25T14:35:56.372Z,5.20
2022-07-25T14:38:22.595Z,5.97
2022-07-25T14:40:48.975Z,4.75
2022-07-25T14:43:15.216Z,5.07
2022-07-25T14:45:41.506Z,5.60
2022-07-25T14:48:07.744Z,4.93
2022-07-25T14:50:34.071Z,4.60
2022-07-25T14:53:00.291Z,5.17
2022-07-25T14:55:26.943Z,5.38
2022-07-25T14:57:53.270Z,5.07
2022-07-25T15:00:19.573Z,4.30
2022-07-25T15:02:45.840Z,4.43
2022-07-25T15:05:12.197Z,4.78
2022-07-25T15:07:38.524Z,5.07
2022-07-25T15:10:04.766Z,4.90
2022-07-25T15:12:31.535Z,5.00
2022-07-25T15:14:57.823Z,4.85
2022-07-25T15:17:24.068Z,4.70
2022-07-25T15:19:50.432Z,4.95
2022-07-25T15:22:16.801Z,5.05
2022-07-25T15:25:06.768Z,5.03
2022-07-25T15:27:29.327Z,4.30
2022-07-25T15:29:55.598Z,4.47
2022-07-25T15:32:21.829Z,5.03
2022-07-25T15:34:48.139Z,4.43
2022-07-25T15:37:14.367Z,4.97
2022-07-25T15:39:40.679Z,5.35
2022-07-25T15:42:06.953Z,4.83
2022-07-25T15:44:33.179Z,5.30
2022-07-25T15:46:59.530Z,4.97
2022-07-25T15:49:25.927Z,5.50
2022-07-25T15:51:52.302Z,5.43
2022-07-25T15:54:18.533Z,4.93
2022-07-25T15:56:44.895Z,5.35
2022-07-25T15:59:11.125Z,5.30
2022-07-25T16:01:37.492Z,5.63
2022-07-25T16:04:03.959Z,4.88
2022-07-25T16:06:30.544Z,5.22
2022-07-25T16:08:56.891Z,4.97
2022-07-25T16:11:23.114Z,4.83
2022-07-25T16:13:49.426Z,4.43
2022-07-25T16:16:15.988Z,4.60
2022-07-25T16:18:42.325Z,4.70
2022-07-25T16:21:08.552Z,4.43
2022-07-25T16:23:41.523Z,4.93
2022-07-25T16:26:12.249Z,4.70
2022-07-25T16:28:39.541Z,5.28
2022-07-25T16:31:05.912Z,4.43
2022-07-25T16:33:32.270Z,4.50
2022-07-25T16:35:58.607Z,4.53
2022-07-25T16:38:25.378Z,4.87
2022-07-25T16:40:51.691Z,4.57
2022-07-25T16:43:17.935Z,4.90
2022-07-25T16:45:44.265Z,4.72
2022-07-25T16:48:10.496Z,4.73
2022-07-25T16:50:36.780Z,5.20
2022-07-25T16:53:03.211Z,4.95
2022-07-25T16:55:29.529Z,4.38
2022-07-25T16:57:55.776Z,4.13
2022-07-25T17:00:22.074Z,4.80
2022-07-25T17:02:51.816Z,4.30
2022-07-25T17:05:18.327Z,5.38
2022-07-25T17:07:45.586Z,4.40
2022-07-25T17:10:11.830Z,4.30
2022-07-25T17:12:38.169Z,4.93
2022-07-25T17:15:04.466Z,4.55
2022-07-25T17:17:31.652Z,4.60
2022-07-25T17:20:00.087Z,4.28
2022-07-25T17:22:26.643Z,4.50
2022-07-25T17:24:52.945Z,4.57
2022-07-25T17:27:19.246Z,4.53
2022-07-25T17:29:45.487Z,4.30
2022-07-25T17:32:11.768Z,4.03
2022-07-25T17:34:38.064Z,4.28
2022-07-25T17:37:04.356Z,4.78
2022-07-25T17:39:30.635Z,4.70
2022-07-25T17:41:56.961Z,4.13
2022-07-25T17:44:23.259Z,4.43
2022-07-25T17:46:50.464Z,4.82
2022-07-25T17:51:43.225Z,5.10
2022-07-25T17:54:09.906Z,4.37
2022-07-25T17:56:36.583Z,4.22
2022-07-25T17:59:02.843Z,4.80
2022-07-25T18:01:29.232Z,4.30
2022-07-25T18:03:55.558Z,4.27
2022-07-25T18:06:25.129Z,4.18
2022-07-25T18:08:55.837Z,4.40
2022-07-25T18:11:22.230Z,4.60
2022-07-25T18:13:48.456Z,4.63
2022-07-25T18:16:14.915Z,4.40
2022-07-25T18:18:41.304Z,5.65
2022-07-25T18:21:07.587Z,6.75
2022-07-25T18:23:33.964Z,6.40
2022-07-25T18:26:00.276Z,6.13
2022-07-25T18:28:26.623Z,5.82
2022-07-25T18:30:52.954Z,6.15
2022-07-25T18:33:20.147Z,6.45
2022-07-25T18:35:46.474Z,5.10
2022-07-25T18:38:12.836Z,5.45
2022-07-25T18:40:39.143Z,5.15
2022-07-25T18:43:08.205Z,6.03
2022-07-25T18:45:35.383Z,5.88
2022-07-25T18:48:01.686Z,5.70
2022-07-25T18:50:27.970Z,5.47
2022-07-25T18:52:54.296Z,6.10
2022-07-25T18:55:20.592Z,6.28
2022-07-25T18:57:46.905Z,5.55
2022-07-25T19:00:13.200Z,7.00
2022-07-25T19:02:39.543Z,9.95
2022-07-25T19:05:06.260Z,8.57
2022-07-25T19:07:32.694Z,8.63
2022-07-25T19:09:59.000Z,26.88
2022-07-25T19:12:27.141Z,71.95
2022-07-25T19:14:53.478Z,68.93
2022-07-25T19:17:19.956Z,78.75
2022-07-25T19:19:46.264Z,102.43
2022-07-25T19:22:12.555Z,108.28
2022-07-25T19:24:38.862Z,105.93
2022-07-25T19:27:05.177Z,101.03
2022-07-25T19:29:31.487Z,97.30
2022-07-25T19:31:57.779Z,96.50
2022-07-25T19:34:24.081Z,100.68
2022-07-25T19:36:50.407Z,117.50
2022-07-25T19:39:17.488Z,131.80
2022-07-25T19:41:46.829Z,132.98
2022-07-25T19:44:13.546Z,175.35
2022-07-25T19:46:39.890Z,152.43
2022-07-25T19:49:06.340Z,146.90
2022-07-25T19:51:32.885Z,135.82
2022-07-25T19:53:59.194Z,136.07
2022-07-25T19:56:25.528Z,137.60
2022-07-25T19:58:51.837Z,122.90
2022-07-25T20:01:18.236Z,117.40
2022-07-25T20:03:44.613Z,92.25
2022-07-25T20:06:10.931Z,53.75
2022-07-25T20:08:39.138Z,31.83
2022-07-25T20:11:05.423Z,23.23
2022-07-25T20:13:31.834Z,17.73
2022-07-25T20:15:58.675Z,14.57
2022-07-25T20:18:24.996Z,14.38
2022-07-25T20:20:51.289Z,11.55
2022-07-25T20:23:17.602Z,10.70
2022-07-25T20:25:43.907Z,10.35
2022-07-25T20:28:10.219Z,10.80
2022-07-25T20:30:36.555Z,13.02
2022-07-25T20:33:05.563Z,12.60
2022-07-25T20:35:35.789Z,14.68
2022-07-25T20:38:02.094Z,19.52
2022-07-25T20:40:28.629Z,17.25
2022-07-25T20:42:55.647Z,17.15
2022-07-25T20:45:21.957Z,16.75
2022-07-25T20:47:48.244Z,14.93
2022-07-25T20:50:14.545Z,16.67
2022-07-25T20:52:40.852Z,15.10
2022-07-25T20:55:08.877Z,14.60
2022-07-25T20:57:35.167Z,14.13
2022-07-25T21:00:01.476Z,14.38
2022-07-25T21:02:27.857Z,14.07
2022-07-25T21:04:54.235Z,15.10
2022-07-25T21:07:20.605Z,13.88
2022-07-25T21:09:46.907Z,13.00
2022-07-25T21:12:13.198Z,12.77
2022-07-25T21:14:39.500Z,13.38
2022-07-25T21:17:05.947Z,13.20
2022-07-25T21:19:32.344Z,12.75
2022-07-25T21:21:58.640Z,13.73
2022-07-25T21:24:24.941Z,13.98
2022-07-25T21:26:51.467Z,12.70
2022-07-25T21:29:18.146Z,13.07
2022-07-25T21:31:44.439Z,13.33
2022-07-25T21:34:10.788Z,12.77
2022-07-25T21:36:37.103Z,13.07
2022-07-25T21:39:03.411Z,13.45
2022-07-25T21:41:29.725Z,14.05
2022-07-25T21:43:56.015Z,12.48
2022-07-25T21:46:22.459Z,13.23
2022-07-25T21:49:07.623Z,14.23
2022-07-25T21:51:40.399Z,13.80
2022-07-25T21:54:07.396Z,22.75
2022-07-25T21:56:33.715Z,26.35
2022-07-25T21:59:00.011Z,21.15
2022-07-25T22:01:26.344Z,21.63
2022-07-25T22:03:52.876Z,23.23
2022-07-25T22:06:19.288Z,24.88
2022-07-25T22:08:45.631Z,25.20
2022-07-25T22:11:20.841Z,27.38
2022-07-25T22:13:58.230Z,25.83
2022-07-25T22:16:25.087Z,26.67
2022-07-25T22:18:51.408Z,26.08
2022-07-25T22:21:17.722Z,26.88
2022-07-25T22:23:44.700Z,25.95
2022-07-25T22:26:11.021Z,24.88
2022-07-25T22:28:37.340Z,28.27
2022-07-25T22:31:03.985Z,24.73
2022-07-25T22:33:31.018Z,25.92
2022-07-25T22:35:57.513Z,26.92
2022-07-25T22:38:23.817Z,22.48
2022-07-25T22:40:50.120Z,14.68
2022-07-25T22:43:16.410Z,11.85
2022-07-25T22:45:43.169Z,8.82
2022-07-25T22:48:09.495Z,8.27
2022-07-25T22:50:35.796Z,8.10
2022-07-25T22:53:02.087Z,7.65
2022-07-25T22:55:28.405Z,7.10
2022-07-25T22:57:54.700Z,7.63
2022-07-25T23:00:21.005Z,6.88
2022-07-25T23:02:47.324Z,7.13
2022-07-25T23:05:13.680Z,7.80
2022-07-25T23:07:39.976Z,8.07
2022-07-25T23:10:06.339Z,7.70
2022-07-25T23:12:32.637Z,7.60
2022-07-25T23:14:58.971Z,9.68
2022-07-25T23:17:25.311Z,14.18
2022-07-25T23:19:51.653Z,14.13
2022-07-25T23:22:17.976Z,17.08
2022-07-25T23:24:44.296Z,15.27
2022-07-25T23:27:10.579Z,17.23
2022-07-25T23:29:36.878Z,17.05
2022-07-25T23:32:03.285Z,17.25
2022-07-25T23:34:29.667Z,17.02
2022-07-25T23:36:55.982Z,16.50
2022-07-25T23:39:22.303Z,17.85
2022-07-25T23:41:48.584Z,16.77
2022-07-25T23:44:14.892Z,16.55
2022-07-25T23:46:41.241Z,17.17
2022-07-25T23:49:09.824Z,18.85
2022-07-25T23:51:36.462Z,17.40
2022-07-25T23:54:02.916Z,15.35
2022-07-25T23:56:29.213Z,17.60
2022-07-25T23:58:55.543Z,14.02
